Currently 50°F in Lake Elsinore, California, USA
50°F
51°F / 50°F
calm
0.00"
Monday, February 20, 2017 2:53 AM PST

Lake Elsinore, California Weather Summary
Last 36 Hours

Temperature Winds Hourly Humidity Dewpoint
Time Report Norm Report Norm Max Gusts Precip. Rpt. Norm Rpt. Norm Pressure
1Mon 02:53 AM  50.4°F  45°F  calm  1 mph  none  0.00"  95%  89%  49°F  42°F  30.21"
Mon 02:00 AM  50.3°F  46°F  calm  1 mph  none  0.00"  94%  88%  48°F  42°F  30.20"
3Mon 01:28 AM  50.1°F  46°F  calm  1 mph  none  ----  93%  87%  48°F  43°F  30.20"
Mon 01:00 AM  50.4°F  47°F  calm  1 mph  none  0.00"  93%  87%  48°F  43°F  30.19"
2Mon 12:03 AM  51.0°F  48°F  calm  1 mph  none  ----  90%  85%  48°F  43°F  30.20"
Mon 12:00 AM  51.0°F  48°F  calm  1 mph  none  0.00"  90%  85%  48°F  43°F  30.20"
Sun 11:00 PM  51.3°F  49°F  calm  1 mph  none  0.00"  87%  83%  47°F  44°F  30.19"
Sun 10:00 PM  51.4°F  50°F  calm  1 mph  none  0.00"  83%  80%  46°F  44°F  30.18"
Sun 09:00 PM  51.4°F  52°F  calm  1 mph  4 mph  0.00"  85%  77%  47°F  45°F  30.16"
Sun 08:00 PM  52.2°F  54°F  2 mph SE  1 mph  9 mph  0.00"  85%  74%  47°F  45°F  30.14"
Sun 07:00 PM  52.3°F  56°F  1 mph W  2 mph  17 mph  0.00"  83%  69%  47°F  46°F  30.10"
Sun 06:00 PM  53.2°F  59°F  5 mph S  3 mph  12 mph  0.00"  83%  64%  48°F  46°F  30.07"
Sun 05:00 PM  55.3°F  63°F  9 mph SW  4 mph  18 mph  0.00"  80%  57%  49°F  47°F  30.04"
Sun 04:00 PM  58.9°F  66°F  6 mph SW  4 mph  19 mph  0.00"  74%  52%  50°F  47°F  30.03"
Sun 03:00 PM  59.2°F  67°F  2 mph SE  4 mph  20 mph  0.00"  78%  50%  52°F  47°F  30.00"
Sun 02:00 PM  59.4°F  67°F  7 mph S  4 mph  18 mph  0.00"  76%  49%  52°F  47°F  30.00"
Sun 01:00 PM  61.0°F  67°F  5 mph S  3 mph  19 mph  0.00"  76%  50%  53°F  47°F  29.99"
Sun 12:00 PM  60.0°F  65°F  6 mph SE  3 mph  19 mph  0.00"  82%  53%  54°F  47°F  29.99"
Sun 11:00 AM  55.9°F  63°F  3 mph E  3 mph  7 mph  0.00"  92%  58%  54°F  47°F  29.99"
Sun 10:00 AM  57.3°F  59°F  2 mph SE  2 mph  14 mph  0.00"  84%  68%  52°F  48°F  29.97"
Sun 09:00 AM  53.8°F  55°F  7 mph S  2 mph  12 mph  0.00"  90%  77%  51°F  48°F  29.94"
Sun 08:00 AM  52.3°F  50°F  calm  1 mph  none  0.00"  95%  87%  51°F  46°F  29.92"
Sun 07:00 AM  50.7°F  44°F  calm  1 mph  none  0.00"  96%  91%  50°F  41°F  29.89"
Sun 06:00 AM  50.8°F  44°F  calm  1 mph  none  0.00"  96%  91%  50°F  41°F  29.86"
Sun 05:00 AM  50.9°F  44°F  calm  1 mph  none  0.00"  96%  90%  50°F  41°F  29.84"
Sun 04:00 AM  50.6°F  45°F  calm  1 mph  none  0.00"  97%  89%  50°F  42°F  29.82"
Sun 03:00 AM  50.8°F  45°F  calm  1 mph  none  0.00"  97%  88%  50°F  42°F  29.80"
Sun 02:00 AM  50.0°F  46°F  calm  1 mph  none  0.00"  97%  87%  49°F  42°F  29.78"
Sun 01:00 AM  50.0°F  47°F  calm  1 mph  none  0.00"  98%  86%  49°F  43°F  29.78"
Sun 12:00 AM  50.9°F  48°F  calm  1 mph  none  0.00"  98%  84%  50°F  43°F  29.78"
Sat 11:00 PM  52.1°F  49°F  calm  1 mph  none  0.00"  98%  82%  51°F  44°F  29.77"
Sat 10:00 PM  52.1°F  50°F  calm  1 mph  none  0.00"  97%  80%  51°F  44°F  29.74"
Sat 09:00 PM  52.8°F  52°F  calm  1 mph  none  0.01"  97%  77%  52°F  45°F  29.72"
Sat 08:00 PM  52.7°F  54°F  calm  1 mph  none  0.00"  97%  73%  52°F  45°F  29.69"
Sat 07:00 PM  52.2°F  56°F  calm  2 mph  none  0.00"  99%  69%  52°F  46°F  29.66"
Sat 06:00 PM  51.9°F  59°F  calm  3 mph  none  0.00"  99%  64%  52°F  46°F  29.64"
Sat 05:00 PM  53.4°F  63°F  calm  4 mph  none  0.00"  98%  58%  53°F  47°F  29.61"
Sat 04:00 PM  54.6°F  66°F  calm  4 mph  none  0.00"  98%  52%  54°F  47°F  29.60"
Sat 03:00 PM  53.8°F  68°F  calm  4 mph  none  0.04"  97%  49%  53°F  47°F  29.59"

  1. Current weather data. No green row appears if the current weather data is also the high or low for the current day.
  2. High temperature for the current day.
  3. Low temperature for the current day.

The Lake Elsinore, California weather pages are a service of WeatherCurrents. Lake Elsinore is located south of Corona and north of the Temecula Valley, in southwestern Riverside County, California.
Copyright ©Mon Feb 20 02:54:27 PST 2017  WeatherCurrents. All rights reserved. - Submit questions and comments - Privacy Policy

This page automatically refreshes every 10 minutes.